createdAt,value
2018-01-07T00:00:19.162Z,101336.95
2018-01-07T00:02:46.610Z,101337.88
2018-01-07T00:05:14.014Z,101341.50
2018-01-07T00:07:41.407Z,101357.70
2018-01-07T00:10:08.856Z,101348.91
2018-01-07T00:12:36.631Z,101350.22
2018-01-07T00:15:04.074Z,101360.41
2018-01-07T00:17:31.458Z,101369.24
2018-01-07T00:19:58.879Z,101370.66
2018-01-07T00:22:26.258Z,101377.48
2018-01-07T00:24:53.659Z,101375.70
2018-01-07T00:27:21.059Z,101383.67
2018-01-07T00:29:48.476Z,101389.88
2018-01-07T00:32:15.902Z,101387.42
2018-01-07T00:34:43.398Z,101389.77
2018-01-07T00:37:10.794Z,101397.30
2018-01-07T00:39:38.191Z,101405.81
2018-01-07T00:42:05.586Z,101408.19
2018-01-07T00:44:32.986Z,101413.61
2018-01-07T00:47:00.486Z,101415.12
2018-01-07T00:49:27.876Z,101417.59
2018-01-07T00:51:55.270Z,101432.64
2018-01-07T00:54:22.710Z,101446.33
2018-01-07T00:56:50.199Z,101438.70
2018-01-07T00:59:17.603Z,101447.53
2018-01-07T01:01:44.986Z,101459.74
2018-01-07T01:04:12.399Z,101457.52
2018-01-07T01:06:39.811Z,101466.29
2018-01-07T01:09:07.194Z,101464.03
2018-01-07T01:11:34.591Z,101468.30
2018-01-07T01:14:02.044Z,101465.31
2018-01-07T01:16:29.453Z,101487.91
2018-01-07T01:18:56.846Z,101483.56
2018-01-07T01:21:24.275Z,101488.08
2018-01-07T01:23:51.678Z,101491.49
2018-01-07T01:26:19.071Z,101499.92
2018-01-07T01:28:46.454Z,101502.05
2018-01-07T01:31:13.851Z,101518.80
2018-01-07T01:33:41.240Z,101510.60
2018-01-07T01:36:08.643Z,101515.36
2018-01-07T01:38:36.026Z,101517.91
2018-01-07T01:41:03.418Z,101516.64
2018-01-07T01:43:30.810Z,101522.26
2018-01-07T01:45:58.738Z,101529.23
2018-01-07T01:48:26.239Z,101530.05
2018-01-07T01:50:53.647Z,101531.41
2018-01-07T01:53:21.040Z,101531.00
2018-01-07T01:55:52.383Z,101535.46
2018-01-07T01:58:19.794Z,101538.04
2018-01-07T02:00:47.166Z,101546.71
2018-01-07T02:03:14.557Z,101542.86
2018-01-07T02:05:41.962Z,101546.31
2018-01-07T02:08:09.367Z,101538.89
2018-01-07T02:10:36.772Z,101544.20
2018-01-07T02:13:04.170Z,101545.12
2018-01-07T02:15:31.602Z,101553.48
2018-01-07T02:17:59.603Z,101550.86
2018-01-07T02:20:26.994Z,101560.53
2018-01-07T02:22:54.386Z,101566.15
2018-01-07T02:25:21.798Z,101572.73
2018-01-07T02:27:49.198Z,101572.79
2018-01-07T02:30:16.615Z,101571.92
2018-01-07T02:32:44.006Z,101567.08
2018-01-07T02:35:11.396Z,101578.77
2018-01-07T02:37:38.797Z,101579.15
2018-01-07T02:40:06.178Z,101593.18
2018-01-07T02:42:33.671Z,101596.16
2018-01-07T02:45:01.064Z,101600.88
2018-01-07T02:47:28.451Z,101602.22
2018-01-07T02:49:55.838Z,101605.23
2018-01-07T02:52:23.227Z,101616.98
2018-01-07T02:54:50.631Z,101617.36
2018-01-07T02:57:18.018Z,101628.58
2018-01-07T02:59:45.405Z,101632.58
2018-01-07T03:02:12.828Z,101628.31
2018-01-07T03:04:40.283Z,101627.84
2018-01-07T03:07:07.700Z,101630.84
2018-01-07T03:09:35.090Z,101640.03
2018-01-07T03:12:02.505Z,101641.73
2018-01-07T03:14:29.874Z,101642.69
2018-01-07T03:16:57.290Z,101646.53
2018-01-07T03:19:24.695Z,101660.78
2018-01-07T03:21:52.166Z,101662.48
2018-01-07T03:24:19.568Z,101672.14
2018-01-07T03:26:46.956Z,101679.47
2018-01-07T03:29:14.350Z,101680.31
2018-01-07T03:31:41.737Z,101689.12
2018-01-07T03:34:09.220Z,101689.03
2018-01-07T03:36:36.620Z,101692.45
2018-01-07T03:39:04.058Z,101690.84
2018-01-07T03:41:31.461Z,101695.05
2018-01-07T03:43:58.859Z,101700.34
2018-01-07T03:46:26.279Z,101711.62
2018-01-07T03:48:53.747Z,101705.53
2018-01-07T03:51:21.145Z,101713.38
2018-01-07T03:53:48.546Z,101716.08
2018-01-07T03:56:15.942Z,101712.56
2018-01-07T03:58:43.331Z,101717.28
2018-01-07T04:01:10.718Z,101720.00
2018-01-07T04:03:38.127Z,101724.72
2018-01-07T04:06:05.542Z,101717.83
2018-01-07T04:08:33.014Z,101728.23
2018-01-07T04:11:00.428Z,101733.43
2018-01-07T04:13:27.794Z,101745.07
2018-01-07T04:15:55.186Z,101747.27
2018-01-07T04:18:22.567Z,101746.05
2018-01-07T04:20:49.962Z,101746.13
2018-01-07T04:23:17.363Z,101750.02
2018-01-07T04:25:44.777Z,101755.24
2018-01-07T04:28:12.174Z,101762.16
2018-01-07T04:30:39.573Z,101763.41
2018-01-07T04:33:07.078Z,101759.55
2018-01-07T04:35:34.478Z,101770.34
2018-01-07T04:38:01.871Z,101774.27
2018-01-07T04:40:29.336Z,101774.71
2018-01-07T04:42:56.739Z,101779.03
2018-01-07T04:45:24.143Z,101785.22
2018-01-07T04:47:51.514Z,101780.48
2018-01-07T04:50:18.916Z,101784.42
2018-01-07T04:52:46.318Z,101784.39
2018-01-07T04:55:13.690Z,101793.89
2018-01-07T04:57:41.090Z,101799.13
2018-01-07T05:00:08.475Z,101796.10
2018-01-07T05:02:35.866Z,101807.39
2018-01-07T05:05:03.266Z,101809.98
2018-01-07T05:07:30.748Z,101804.83
2018-01-07T05:09:58.156Z,101818.28
2018-01-07T05:12:25.557Z,101821.30
2018-01-07T05:14:52.930Z,101821.73
2018-01-07T05:17:20.328Z,101830.41
2018-01-07T05:19:47.842Z,101831.30
2018-01-07T05:22:15.241Z,101836.53
2018-01-07T05:24:42.628Z,101845.20
2018-01-07T05:27:10.032Z,101847.80
2018-01-07T05:29:37.414Z,101854.73
2018-01-07T05:32:04.950Z,101854.30
2018-01-07T05:34:32.319Z,101855.16
2018-01-07T05:36:59.706Z,101858.18
2018-01-07T05:39:27.120Z,101857.33
2018-01-07T05:41:54.503Z,101874.64
2018-01-07T05:44:21.903Z,101873.80
2018-01-07T05:46:49.318Z,101880.75
2018-01-07T05:49:16.729Z,101885.07
2018-01-07T05:51:44.094Z,101892.86
2018-01-07T05:54:11.515Z,101894.16
2018-01-07T05:56:38.908Z,101893.30
2018-01-07T05:59:06.300Z,101894.61
2018-01-07T06:01:33.723Z,101896.33
2018-01-07T06:04:01.126Z,101895.44
2018-01-07T06:06:28.508Z,101902.82
2018-01-07T06:08:55.905Z,101910.64
2018-01-07T06:11:23.291Z,101916.26
2018-01-07T06:13:50.687Z,101932.75
2018-01-07T06:16:18.100Z,101927.56
2018-01-07T06:18:45.506Z,101937.96
2018-01-07T06:21:12.895Z,101934.91
2018-01-07T06:23:40.283Z,101940.12
2018-01-07T06:26:07.670Z,101947.48
2018-01-07T06:28:35.059Z,101947.51
2018-01-07T06:31:02.446Z,101955.28
2018-01-07T06:33:29.839Z,101960.08
2018-01-07T06:35:57.231Z,101968.30
2018-01-07T06:38:24.634Z,101973.48
2018-01-07T06:40:52.046Z,101980.43
2018-01-07T06:43:19.428Z,101986.95
2018-01-07T06:45:46.863Z,101988.67
2018-01-07T06:48:14.273Z,101992.58
2018-01-07T06:50:41.675Z,101991.27
2018-01-07T06:53:09.070Z,101993.86
2018-01-07T06:55:36.511Z,101989.11
2018-01-07T06:58:03.902Z,102002.53
2018-01-07T07:00:31.333Z,102011.22
2018-01-07T07:02:58.703Z,102017.73
2018-01-07T07:05:26.096Z,102006.88
2018-01-07T07:07:53.503Z,102019.87
2018-01-07T07:10:20.979Z,102033.30
2018-01-07T07:12:49.186Z,102040.67
2018-01-07T07:15:16.566Z,102040.69
2018-01-07T07:17:43.979Z,102058.89
2018-01-07T07:20:11.367Z,102060.63
2018-01-07T07:22:38.763Z,102071.91
2018-01-07T07:25:06.146Z,102069.29
2018-01-07T07:27:33.555Z,102073.20
2018-01-07T07:30:00.946Z,102085.34
2018-01-07T07:32:28.390Z,102082.30
2018-01-07T07:34:55.770Z,102090.55
2018-01-07T07:37:23.417Z,102090.12
2018-01-07T07:39:50.818Z,102093.17
2018-01-07T07:42:18.214Z,102098.36
2018-01-07T07:44:45.643Z,102106.16
2018-01-07T07:47:13.084Z,102108.78
2018-01-07T07:49:40.471Z,102123.09
2018-01-07T07:52:07.887Z,102117.86
2018-01-07T07:54:35.331Z,102127.81
2018-01-07T07:57:02.727Z,102132.61
2018-01-07T07:59:30.111Z,102124.78
2018-01-07T08:01:57.589Z,102129.13
2018-01-07T08:04:24.967Z,102135.63
2018-01-07T08:06:52.343Z,102143.03
2018-01-07T08:09:19.738Z,102150.37
2018-01-07T08:11:47.171Z,102156.91
2018-01-07T08:14:14.566Z,102163.84
2018-01-07T08:16:41.960Z,102154.73
2018-01-07T08:19:09.359Z,102156.45
2018-01-07T08:21:36.791Z,102173.79
2018-01-07T08:24:04.251Z,102180.78
2018-01-07T08:26:31.656Z,102181.20
2018-01-07T08:29:00.409Z,102182.47
2018-01-07T08:31:27.874Z,102180.34
2018-01-07T08:33:55.311Z,102186.00
2018-01-07T08:36:22.707Z,102191.20
2018-01-07T08:38:50.102Z,102193.82
2018-01-07T08:41:17.490Z,102189.89
2018-01-07T08:43:44.895Z,102195.97
2018-01-07T08:46:12.290Z,102200.72
2018-01-07T08:48:39.699Z,102212.00
2018-01-07T08:51:07.088Z,102216.78
2018-01-07T08:53:34.538Z,102222.45
2018-01-07T08:56:01.927Z,102222.92
2018-01-07T08:58:29.318Z,102216.81
2018-01-07T09:00:56.737Z,102228.55
2018-01-07T09:03:24.119Z,102228.16
2018-01-07T09:05:51.531Z,102240.75
2018-01-07T09:08:18.939Z,102236.39
2018-01-07T09:10:46.326Z,102244.23
2018-01-07T09:13:13.730Z,102252.91
2018-01-07T09:15:41.123Z,102259.43
2018-01-07T09:18:08.524Z,102262.02
2018-01-07T09:20:35.919Z,102263.80
2018-01-07T09:23:03.402Z,102254.66
2018-01-07T09:25:30.794Z,102266.40
2018-01-07T09:27:58.191Z,102266.38
2018-01-07T09:30:25.691Z,102268.11
2018-01-07T09:32:53.126Z,102275.08
2018-01-07T09:35:20.518Z,102280.29
2018-01-07T09:37:47.918Z,102287.67
2018-01-07T09:40:15.312Z,102286.34
2018-01-07T09:42:42.727Z,102296.75
2018-01-07T09:45:10.119Z,102287.20
2018-01-07T09:47:37.503Z,102287.20
2018-01-07T09:50:05.010Z,102286.33
2018-01-07T09:52:32.476Z,102288.95
2018-01-07T09:54:59.852Z,102294.14
2018-01-07T09:57:27.247Z,102296.31
2018-01-07T09:59:54.652Z,102306.34
2018-01-07T10:02:22.155Z,102307.23
2018-01-07T10:04:49.552Z,102309.83
2018-01-07T10:07:16.947Z,102316.78
2018-01-07T10:09:44.331Z,102315.91
2018-01-07T10:12:11.720Z,102316.33
2018-01-07T10:14:39.103Z,102326.77
2018-01-07T10:17:06.494Z,102325.48
2018-01-07T10:19:33.991Z,102324.60
2018-01-07T10:22:02.298Z,102318.96
2018-01-07T10:24:29.695Z,102320.67
2018-01-07T10:26:57.114Z,102321.55
2018-01-07T10:29:24.501Z,102318.95
2018-01-07T10:31:51.891Z,102323.73
2018-01-07T10:34:19.282Z,102326.77
2018-01-07T10:36:46.683Z,102319.84
2018-01-07T10:39:14.074Z,102320.25
2018-01-07T10:41:41.492Z,102311.14
2018-01-07T10:44:08.896Z,102309.84
2018-01-07T10:46:36.366Z,102318.96
2018-01-07T10:49:03.755Z,102320.69
2018-01-07T10:51:31.138Z,102321.11
2018-01-07T10:53:58.577Z,102315.91
2018-01-07T10:56:25.956Z,102306.80
2018-01-07T10:58:53.371Z,102315.05
2018-01-07T11:04:25.610Z,102311.98
2018-01-07T11:06:52.984Z,102315.90
2018-01-07T11:09:20.374Z,102298.52
2018-01-07T11:11:47.763Z,102308.53
2018-01-07T11:14:15.154Z,102314.16
2018-01-07T11:16:42.539Z,102313.69
2018-01-07T11:19:09.935Z,102306.70
2018-01-07T11:21:37.324Z,102316.30
2018-01-07T11:24:04.722Z,102317.59
2018-01-07T11:26:32.131Z,102318.05
2018-01-07T11:28:59.536Z,102325.88
2018-01-07T11:31:26.919Z,102327.60
2018-01-07T11:33:54.310Z,102331.09
2018-01-07T11:36:21.689Z,102329.81
2018-01-07T11:38:49.099Z,102325.48
2018-01-07T11:41:16.494Z,102322.84
2018-01-07T11:43:43.952Z,102334.59
2018-01-07T11:46:11.343Z,102331.10
2018-01-07T11:48:38.751Z,102338.48
2018-01-07T11:51:06.164Z,102341.11
2018-01-07T11:53:33.559Z,102344.16
2018-01-07T11:56:00.955Z,102343.30
2018-01-07T11:58:28.330Z,102345.90
2018-01-07T12:00:55.868Z,102346.77
2018-01-07T12:03:23.252Z,102355.88
2018-01-07T12:05:50.747Z,102354.58
2018-01-07T12:08:18.223Z,102352.83
2018-01-07T12:10:45.655Z,102344.56
2018-01-07T12:13:13.059Z,102353.69
2018-01-07T12:15:40.446Z,102345.00
2018-01-07T12:18:07.848Z,102344.14
2018-01-07T12:20:35.343Z,102352.37
2018-01-07T12:23:02.643Z,102348.89
2018-01-07T12:25:30.295Z,102347.58
2018-01-07T12:27:57.684Z,102351.91
2018-01-07T12:30:25.114Z,102347.06
2018-01-07T12:32:52.479Z,102349.67
2018-01-07T12:35:19.869Z,102342.70
2018-01-07T12:37:47.250Z,102344.91
2018-01-07T12:40:14.654Z,102348.37
2018-01-07T12:42:42.055Z,102357.50
2018-01-07T12:45:09.447Z,102343.99
2018-01-07T12:47:36.839Z,102343.11
2018-01-07T12:50:04.263Z,102338.23
2018-01-07T12:52:31.653Z,102342.63
2018-01-07T12:54:59.091Z,102340.91
2018-01-07T12:57:26.494Z,102345.28
2018-01-07T12:59:53.878Z,102344.41
2018-01-07T13:02:21.282Z,102343.99
2018-01-07T13:04:48.667Z,102346.15
2018-01-07T13:07:16.075Z,102343.48
2018-01-07T13:09:43.490Z,102348.64
2018-01-07T13:12:10.911Z,102348.17
2018-01-07T13:14:38.516Z,102347.28
2018-01-07T13:17:05.991Z,102344.69
2018-01-07T13:19:33.383Z,102338.61
2018-01-07T13:22:00.788Z,102335.10
2018-01-07T13:24:28.187Z,102343.02
2018-01-07T13:26:55.575Z,102344.77
2018-01-07T13:29:22.963Z,102346.97
2018-01-07T13:31:50.374Z,102342.19
2018-01-07T13:34:17.763Z,102342.19
2018-01-07T13:36:45.179Z,102344.33
2018-01-07T13:39:12.568Z,102350.42
2018-01-07T13:41:39.951Z,102347.84
2018-01-07T13:44:07.670Z,102348.71
2018-01-07T13:46:35.058Z,102351.77
2018-01-07T13:49:02.455Z,102355.66
2018-01-07T13:51:29.880Z,102361.69
2018-01-07T13:53:57.256Z,102356.05
2018-01-07T13:56:24.667Z,102354.28
2018-01-07T13:58:52.070Z,102356.11
2018-01-07T14:01:19.576Z,102370.92
2018-01-07T14:03:46.973Z,102358.73
2018-01-07T14:06:14.373Z,102366.11
2018-01-07T14:08:41.782Z,102366.97
2018-01-07T14:11:09.180Z,102365.23
2018-01-07T14:13:36.644Z,102360.01
2018-01-07T14:16:04.046Z,102361.78
2018-01-07T14:18:31.432Z,102360.55
2018-01-07T14:20:58.871Z,102367.11
2018-01-07T14:23:26.265Z,102364.52
2018-01-07T14:25:53.648Z,102364.08
2018-01-07T14:28:21.066Z,102368.01
2018-01-07T14:30:48.542Z,102373.67
2018-01-07T14:33:15.917Z,102369.31
2018-01-07T14:35:43.342Z,102368.86
2018-01-07T14:38:10.749Z,102365.80
2018-01-07T14:40:38.270Z,102374.96
2018-01-07T14:43:05.655Z,102370.59
2018-01-07T14:45:33.051Z,102373.16
2018-01-07T14:48:00.443Z,102373.22
2018-01-07T14:50:27.884Z,102386.26
2018-01-07T14:52:55.278Z,102384.98
2018-01-07T14:55:22.676Z,102380.22
2018-01-07T14:57:50.067Z,102384.14
2018-01-07T15:00:17.462Z,102395.02
2018-01-07T15:02:44.846Z,102398.48
2018-01-07T15:05:12.251Z,102405.02
2018-01-07T15:07:39.634Z,102400.66
2018-01-07T15:10:07.018Z,102407.19
2018-01-07T15:12:34.434Z,102409.34
2018-01-07T15:15:01.856Z,102408.02
2018-01-07T15:17:29.238Z,102411.91
2018-01-07T15:19:56.655Z,102412.31
2018-01-07T15:22:24.043Z,102421.45
2018-01-07T15:24:51.434Z,102420.58
2018-01-07T15:27:18.822Z,102413.61
2018-01-07T15:29:46.211Z,102411.42
2018-01-07T15:32:13.604Z,102417.87
2018-01-07T15:34:40.994Z,102416.97
2018-01-07T15:37:08.406Z,102423.03
2018-01-07T15:39:35.790Z,102431.61
2018-01-07T15:42:03.187Z,102429.00
2018-01-07T15:44:30.571Z,102429.46
2018-01-07T15:46:57.966Z,102428.53
2018-01-07T15:49:25.355Z,102435.00
2018-01-07T15:51:52.754Z,102432.91
2018-01-07T15:54:20.138Z,102434.14
2018-01-07T15:56:47.580Z,102443.72
2018-01-07T15:59:14.953Z,102437.51
2018-01-07T16:01:42.350Z,102432.22
2018-01-07T16:04:09.860Z,102433.97
2018-01-07T16:06:37.240Z,102425.67
2018-01-07T16:09:04.642Z,102432.59
2018-01-07T16:11:32.047Z,102435.66
2018-01-07T16:13:59.439Z,102433.94
2018-01-07T16:16:26.831Z,102436.01
2018-01-07T16:18:54.262Z,102435.95
2018-01-07T16:21:21.649Z,102448.52
2018-01-07T16:23:49.101Z,102445.95
2018-01-07T16:26:16.488Z,102446.39
2018-01-07T16:28:43.923Z,102443.69
2018-01-07T16:31:11.322Z,102447.56
2018-01-07T16:33:38.713Z,102451.47
2018-01-07T16:36:06.099Z,102444.92
2018-01-07T16:38:33.499Z,102445.34
2018-01-07T16:41:00.882Z,102453.55
2018-01-07T16:43:28.279Z,102443.95
2018-01-07T16:45:55.662Z,102441.75
2018-01-07T16:48:23.057Z,102441.78
2018-01-07T16:50:50.467Z,102447.80
2018-01-07T16:53:17.855Z,102458.61
2018-01-07T16:55:45.243Z,102460.72
2018-01-07T16:58:12.639Z,102455.11
2018-01-07T17:00:40.040Z,102458.96
2018-01-07T17:03:07.445Z,102452.89
2018-01-07T17:05:34.854Z,102458.02
2018-01-07T17:08:02.267Z,102465.38
2018-01-07T17:10:29.663Z,102454.93
2018-01-07T17:12:57.047Z,102458.02
2018-01-07T17:15:24.443Z,102465.36
2018-01-07T17:17:51.831Z,102462.73
2018-01-07T17:20:19.230Z,102466.52
2018-01-07T17:22:46.671Z,102463.39
2018-01-07T17:25:14.063Z,102464.27
2018-01-07T17:27:41.474Z,102461.14
2018-01-07T17:30:08.869Z,102462.47
2018-01-07T17:32:36.263Z,102465.09
2018-01-07T17:35:03.664Z,102469.83
2018-01-07T17:37:31.062Z,102474.13
2018-01-07T17:39:58.546Z,102474.94
2018-01-07T17:42:25.985Z,102477.13
2018-01-07T17:44:53.422Z,102479.20
2018-01-07T17:47:20.812Z,102484.39
2018-01-07T17:49:48.227Z,102485.16
2018-01-07T17:52:15.612Z,102493.42
2018-01-07T17:54:43.041Z,102499.48
2018-01-07T17:57:10.435Z,102494.72
2018-01-07T17:59:37.823Z,102499.81
2018-01-07T18:02:05.227Z,102501.51
2018-01-07T18:04:32.615Z,102505.00
2018-01-07T18:07:00.037Z,102503.24
2018-01-07T18:09:27.422Z,102495.48
2018-01-07T18:11:54.829Z,102500.14
2018-01-07T18:14:22.232Z,102501.01
2018-01-07T18:16:49.663Z,102502.31
2018-01-07T18:19:17.066Z,102494.92
2018-01-07T18:21:44.489Z,102498.77
2018-01-07T18:24:11.881Z,102495.35
2018-01-07T18:26:39.279Z,102498.31
2018-01-07T18:29:06.670Z,102490.48
2018-01-07T18:31:34.195Z,102493.12
2018-01-07T18:34:01.647Z,102496.05
2018-01-07T18:36:29.042Z,102496.47
2018-01-07T18:38:56.429Z,102501.20
2018-01-07T18:41:23.856Z,102505.95
2018-01-07T18:43:51.251Z,102506.02
2018-01-07T18:46:18.651Z,102515.91
2018-01-07T18:48:46.067Z,102513.84
2018-01-07T18:51:13.479Z,102518.57
2018-01-07T18:53:40.871Z,102527.22
2018-01-07T18:56:08.264Z,102526.72
2018-01-07T18:58:35.666Z,102535.77
2018-01-07T19:01:03.046Z,102532.34
2018-01-07T19:03:30.476Z,102530.14
2018-01-07T19:05:57.884Z,102536.31
2018-01-07T19:08:25.327Z,102532.38
2018-01-07T19:10:52.726Z,102523.69
2018-01-07T19:13:20.131Z,102535.65
2018-01-07T19:15:47.515Z,102535.69
2018-01-07T19:18:14.918Z,102537.30
2018-01-07T19:20:42.312Z,102534.34
2018-01-07T19:23:09.727Z,102535.06
2018-01-07T19:25:37.115Z,102534.16
2018-01-07T19:28:04.536Z,102535.80
2018-01-07T19:30:31.926Z,102529.79
2018-01-07T19:32:59.398Z,102533.64
2018-01-07T19:35:26.846Z,102535.80
2018-01-07T19:37:54.288Z,102539.30
2018-01-07T19:40:21.671Z,102533.76
2018-01-07T19:42:49.079Z,102534.20
2018-01-07T19:45:16.470Z,102532.58
2018-01-07T19:47:43.863Z,102538.56
2018-01-07T19:50:11.271Z,102546.61
2018-01-07T19:52:38.698Z,102545.43
2018-01-07T19:55:06.099Z,102548.73
2018-01-07T19:57:33.488Z,102554.47
2018-01-07T20:00:00.911Z,102551.77
2018-01-07T20:02:28.297Z,102558.24
2018-01-07T20:04:55.687Z,102554.22
2018-01-07T20:07:23.107Z,102561.09
2018-01-07T20:09:50.523Z,102559.03
2018-01-07T20:12:17.952Z,102553.05
2018-01-07T20:14:45.358Z,102550.89
2018-01-07T20:17:12.865Z,102554.35
2018-01-07T20:19:40.270Z,102550.30
2018-01-07T20:22:07.683Z,102556.30
2018-01-07T20:24:35.116Z,102558.03
2018-01-07T20:27:02.509Z,102553.23
2018-01-07T20:29:29.908Z,102552.67
2018-01-07T20:31:57.303Z,102553.50
2018-01-07T20:34:24.706Z,102554.31
2018-01-07T20:36:52.095Z,102562.48
2018-01-07T20:39:19.515Z,102567.27
2018-01-07T20:41:46.899Z,102571.08
2018-01-07T20:44:14.305Z,102570.16
2018-01-07T20:46:41.695Z,102571.55
2018-01-07T20:49:09.151Z,102572.03
2018-01-07T20:51:36.515Z,102572.95
2018-01-07T20:54:03.926Z,102571.55
2018-01-07T20:56:31.355Z,102575.40
2018-01-07T20:58:58.743Z,102584.09
2018-01-07T21:01:26.150Z,102587.11
2018-01-07T21:03:53.560Z,102582.27
2018-01-07T21:06:20.959Z,102589.66
2018-01-07T21:08:48.359Z,102590.57
2018-01-07T21:11:15.780Z,102599.34
2018-01-07T21:13:43.210Z,102599.70
2018-01-07T21:16:10.602Z,102607.90
2018-01-07T21:18:37.994Z,102611.27
2018-01-07T21:21:05.399Z,102606.03
2018-01-07T21:23:32.816Z,102609.06
2018-01-07T21:26:00.207Z,102604.59
2018-01-07T21:28:27.601Z,102596.82
2018-01-07T21:30:55.012Z,102600.13
2018-01-07T21:33:22.400Z,102597.58
2018-01-07T21:35:49.808Z,102594.42
2018-01-07T21:38:17.197Z,102597.58
2018-01-07T21:40:44.587Z,102598.93
2018-01-07T21:43:12.022Z,102601.91
2018-01-07T21:45:39.453Z,102603.97
2018-01-07T21:48:06.846Z,102606.51
2018-01-07T21:50:34.242Z,102605.31
2018-01-07T21:53:01.643Z,102604.73
2018-01-07T21:55:29.027Z,102605.32
2018-01-07T21:57:56.457Z,102602.00
2018-01-07T22:00:44.498Z,102606.19
2018-01-07T22:03:23.814Z,102599.50
2018-01-07T22:05:55.896Z,102595.94
2018-01-07T22:08:23.304Z,102599.87
2018-01-07T22:10:50.690Z,102600.03
2018-01-07T22:13:18.107Z,102597.72
2018-01-07T22:15:45.503Z,102598.58
2018-01-07T22:18:12.906Z,102596.43
2018-01-07T22:20:40.322Z,102591.67
2018-01-07T22:23:07.729Z,102593.84
2018-01-07T22:25:35.218Z,102593.79
2018-01-07T22:28:02.618Z,102604.53
2018-01-07T22:30:30.043Z,102609.77
2018-01-07T22:32:57.474Z,102605.45
2018-01-07T22:35:24.870Z,102605.34
2018-01-07T22:37:52.270Z,102605.39
2018-01-07T22:40:19.678Z,102602.81
2018-01-07T22:42:47.131Z,102598.86
2018-01-07T22:45:14.524Z,102603.14
2018-01-07T22:47:47.483Z,102593.96
2018-01-07T22:50:14.870Z,102594.45
2018-01-07T22:52:42.264Z,102599.64
2018-01-07T22:55:09.698Z,102591.00
2018-01-07T22:57:37.050Z,102588.73
2018-01-07T23:00:04.463Z,102590.03
2018-01-07T23:02:31.877Z,102583.98
2018-01-07T23:04:59.404Z,102583.45
2018-01-07T23:07:26.791Z,102579.14
2018-01-07T23:09:54.210Z,102582.87
2018-01-07T23:12:21.595Z,102583.39
2018-01-07T23:14:49.014Z,102583.07
2018-01-07T23:17:16.444Z,102583.07
2018-01-07T23:19:43.863Z,102582.39
2018-01-07T23:22:11.430Z,102581.63
2018-01-07T23:24:38.846Z,102583.69
2018-01-07T23:27:06.240Z,102581.47
2018-01-07T23:29:33.632Z,102580.61
2018-01-07T23:32:01.039Z,102577.64
2018-01-07T23:34:28.506Z,102572.55
2018-01-07T23:36:55.902Z,102574.33
2018-01-07T23:39:23.302Z,102571.16
2018-01-07T23:41:50.703Z,102573.64
2018-01-07T23:44:18.090Z,102569.33
2018-01-07T23:46:45.482Z,102569.39
2018-01-07T23:49:12.871Z,102572.36
2018-01-07T23:51:40.295Z,102566.25
2018-01-07T23:54:07.666Z,102568.90
2018-01-07T23:56:35.090Z,102571.82
2018-01-07T23:59:02.499Z,102570.56
